Time;durP1;ratioP1;P1;durP2;ratioP2;P2;SDS_P1;SDS_P2;PMS_P1;PMS_P2;Temp;Humidity;BMP_temperature;BMP_pressure;BME280_temperature;BME280_humidity;BME280_pressure;Samples;Min_cycle;Max_cycle;Signal;HPM_P1;HPM_P2
2022/01/21 00:01:17;;;;;;;19.58;5.97;;;;;;;-0.55;100.00;103238.31;6495650;23;20008;-75
2022/01/21 00:03:48;;;;;;;27.17;6.13;;;;;;;-0.58;100.00;103235.53;6495772;23;20004;-73
2022/01/21 00:06:20;;;;;;;37.03;6.50;;;;;;;-0.64;100.00;103238.56;6497256;23;20007;-73
2022/01/21 00:08:52;;;;;;;19.60;6.43;;;;;;;-0.71;100.00;103243.09;6496559;23;20008;-73
2022/01/21 00:11:25;;;;;;;24.20;6.68;;;;;;;-0.73;100.00;103255.81;6495957;23;20027;-74
2022/01/21 00:14:00;;;;;;;20.25;5.30;;;;;;;-0.80;100.00;103256.16;6496085;23;20040;-73
2022/01/21 00:16:31;;;;;;;32.83;7.00;;;;;;;-0.87;100.00;103244.56;6495025;22;20081;-73
2022/01/21 00:19:09;;;;;;;22.70;6.00;;;;;;;-0.83;100.00;103244.00;6496351;23;19996;-73
2022/01/21 00:32:47;;;;;;;33.10;7.00;;;;;;;-0.63;100.00;103242.91;6495880;23;20190;-76
2022/01/21 00:35:20;;;;;;;19.98;5.60;;;;;;;-0.65;100.00;103246.13;6496383;23;20098;-76
2022/01/21 00:37:52;;;;;;;21.38;5.45;;;;;;;-0.70;100.00;103238.09;6495845;23;20028;-75
2022/01/21 00:40:25;;;;;;;26.47;6.27;;;;;;;-0.71;100.00;103235.44;6496837;23;20035;-76
2022/01/21 00:43:14;;;;;;;25.30;7.15;;;;;;;-0.74;100.00;103225.88;6496819;23;20115;-76
2022/01/21 00:45:49;;;;;;;19.20;5.40;;;;;;;-0.77;100.00;103230.75;6469259;23;20036;-75
2022/01/21 00:48:20;;;;;;;19.85;5.30;;;;;;;-0.81;100.00;103234.75;6496829;23;20038;-77
2022/01/21 00:50:52;;;;;;;30.90;6.80;;;;;;;-0.89;100.00;103238.41;6496936;23;20012;-75
2022/01/21 00:53:23;;;;;;;25.10;6.47;;;;;;;-0.96;100.00;103228.53;6468849;23;20020;-75
2022/01/21 00:55:54;;;;;;;26.57;5.03;;;;;;;-1.02;100.00;103245.97;6496213;23;20011;-74
2022/01/21 00:58:26;;;;;;;20.10;6.20;;;;;;;-1.00;100.00;103242.78;6496582;23;20057;-76
2022/01/21 01:00:57;;;;;;;21.53;5.03;;;;;;;-1.00;100.00;103236.72;6469436;23;20012;-77
2022/01/21 01:03:28;;;;;;;23.13;5.10;;;;;;;-1.00;100.00;103249.53;6496329;23;20004;-74
2022/01/21 01:06:00;;;;;;;28.07;6.20;;;;;;;-0.96;100.00;103259.25;6496662;23;20008;-75
2022/01/21 01:08:31;;;;;;;27.47;6.37;;;;;;;-0.99;100.00;103253.88;6496907;23;20035;-76
2022/01/21 01:22:09;;;;;;;21.20;4.32;;;;;;;-1.12;100.00;103247.84;6496910;23;20012;-74
2022/01/21 01:27:44;;;;;;;23.88;5.85;;;;;;;-1.17;100.00;103243.19;6369675;23;20089;-74
2022/01/21 01:30:19;;;;;;;22.95;5.40;;;;;;;-1.22;100.00;103231.69;6369245;23;20006;-74
2022/01/21 01:32:56;;;;;;;27.50;7.28;;;;;;;-1.25;100.00;103244.28;6368941;23;20808;-74
2022/01/21 01:35:32;;;;;;;23.33;6.03;;;;;;;-1.25;100.00;103240.03;6344086;23;20478;-74
2022/01/21 01:40:59;;;;;;;22.08;4.85;;;;;;;-1.27;100.00;103238.13;6369358;23;20033;-73
2022/01/21 01:51:47;;;;;;;24.92;6.15;;;;;;;-1.29;100.00;103230.34;6290571;23;20349;-75
2022/01/21 01:54:19;;;;;;;27.47;4.80;;;;;;;-1.27;100.00;103231.38;6310398;23;20014;-75
2022/01/21 01:56:54;;;;;;;20.42;4.68;;;;;;;-1.20;100.00;103228.47;6311225;23;20321;-75
2022/01/21 01:59:27;;;;;;;28.27;5.57;;;;;;;-1.23;100.00;103229.91;6312358;23;20014;-75
2022/01/21 02:02:00;;;;;;;;;;;;;;;-1.27;100.00;103227.88;6312497;23;20018;-75
2022/01/21 02:04:32;;;;;;;21.52;6.05;;;;;;;-1.25;100.00;103224.69;6373602;23;20319;-75
2022/01/21 02:07:03;;;;;;;19.67;5.78;;;;;;;-1.18;100.00;103220.91;6402069;23;20017;-75
2022/01/21 02:09:35;;;;;;;24.10;7.77;;;;;;;-1.23;100.00;103222.25;6402269;23;20006;-75
2022/01/21 02:12:08;;;;;;;22.38;6.50;;;;;;;-1.25;100.00;103227.25;6401524;23;20009;-75
2022/01/21 02:14:47;;;;;;;20.02;5.68;;;;;;;-1.21;100.00;103231.78;6401700;23;20021;-75
2022/01/21 02:22:50;;;;;;;26.27;5.82;;;;;;;-1.32;100.00;103238.69;6407813;23;20092;-76
2022/01/21 02:25:21;;;;;;;24.00;5.18;;;;;;;-1.36;100.00;103236.66;6441919;23;20004;-74
2022/01/21 02:27:56;;;;;;;23.87;5.87;;;;;;;-1.39;100.00;103231.31;6515178;23;20047;-75
2022/01/21 02:30:28;;;;;;;17.17;4.50;;;;;;;-1.43;100.00;103224.19;6483634;23;20011;-76
2022/01/21 02:32:59;;;;;;;21.10;4.20;;;;;;;-1.41;100.00;103224.31;6518595;23;20056;-74
2022/01/21 02:35:31;;;;;;;26.57;5.23;;;;;;;-1.37;100.00;103226.31;6519635;23;20087;-75
2022/01/21 02:38:02;;;;;;;19.60;5.40;;;;;;;-1.43;100.00;103220.72;6519438;23;20043;-75
2022/01/21 02:40:33;;;;;;;22.87;6.07;;;;;;;-1.50;100.00;103225.41;6525544;23;20004;-75
2022/01/21 02:43:05;;;;;;;27.47;7.07;;;;;;;-1.49;100.00;103223.72;6525625;23;20016;-76
2022/01/21 02:45:39;;;;;;;20.37;5.07;;;;;;;-1.50;100.00;103232.16;6525600;23;20004;-76
2022/01/21 02:48:11;;;;;;;26.77;5.57;;;;;;;-1.48;100.00;103233.19;6519102;23;20008;-76
2022/01/21 02:50:43;;;;;;;21.30;5.40;;;;;;;-1.52;100.00;103232.06;6522367;23;20026;-76
2022/01/21 02:53:38;;;;;;;23.88;6.78;;;;;;;-1.52;100.00;103234.59;6523978;23;20008;-74
2022/01/21 02:56:10;;;;;;;20.35;5.35;;;;;;;-1.50;100.00;103232.16;6525953;23;19999;-75
2022/01/21 02:58:43;;;;;;;13.75;4.75;;;;;;;-1.47;100.00;103245.19;6520887;23;20008;-75
2022/01/21 03:01:15;;;;;;;;;;;;;;;-1.55;100.00;103246.28;6523700;23;20038;-75
2022/01/21 03:03:47;;;;;;;19.17;4.82;;;;;;;-1.49;100.00;103249.31;6518987;23;20006;-76
2022/01/21 03:06:22;;;;;;;25.05;5.10;;;;;;;-1.48;100.00;103253.66;6517120;23;20510;-74
2022/01/21 03:08:59;;;;;;;21.52;4.88;;;;;;;-1.47;100.00;103242.63;6481489;23;20004;-76
2022/01/21 03:11:31;;;;;;;21.58;5.47;;;;;;;-1.47;100.00;103238.41;6505402;23;20553;-74
2022/01/21 03:14:03;;;;;;;31.33;6.53;;;;;;;-1.49;100.00;103234.84;6504239;23;20008;-75
2022/01/21 03:16:35;;;;;;;20.40;4.57;;;;;;;-1.46;100.00;103244.44;6504303;23;20004;-74
2022/01/21 03:19:06;;;;;;;18.67;4.60;;;;;;;-1.47;100.00;103253.75;6502062;22;20024;-73
2022/01/21 03:21:38;;;;;;;20.80;5.43;;;;;;;-1.49;100.00;103249.31;6500821;23;20074;-74
2022/01/21 03:24:09;;;;;;;21.40;5.07;;;;;;;-1.52;100.00;103249.06;6500381;23;20016;-73
2022/01/21 03:26:40;;;;;;;21.33;4.40;;;;;;;-1.58;100.00;103246.03;6500448;23;20008;-74
2022/01/21 03:29:12;;;;;;;24.97;5.00;;;;;;;-1.59;100.00;103250.28;6500210;23;20008;-75
2022/01/21 03:31:43;;;;;;;20.20;5.20;;;;;;;-1.53;100.00;103255.88;6499613;23;20007;-74
2022/01/21 03:34:15;;;;;;;25.07;5.67;;;;;;;-1.53;100.00;103263.53;6499053;23;20020;-77
2022/01/21 03:36:46;;;;;;;26.63;5.40;;;;;;;-1.47;100.00;103263.09;6497513;23;20098;-73
2022/01/21 03:39:18;;;;;;;17.87;4.33;;;;;;;-1.47;100.00;103258.88;6498325;23;20087;-74
2022/01/21 03:41:49;;;;;;;28.80;5.07;;;;;;;-1.42;100.00;103266.91;6498399;23;20004;-74
2022/01/21 03:44:20;;;;;;;26.87;5.13;;;;;;;-1.42;100.00;103266.91;6498140;23;20326;-75
2022/01/21 03:46:51;;;;;;;25.50;5.03;;;;;;;-1.41;100.00;103263.56;6497749;23;20008;-74
2022/01/21 03:49:25;;;;;;;26.10;4.63;;;;;;;-1.33;100.00;103256.47;6497332;23;20100;-76
2022/01/21 03:51:59;;;;;;;23.17;5.63;;;;;;;-1.28;100.00;103255.16;6497986;23;20004;-75
2022/01/21 03:54:31;;;;;;;27.53;6.17;;;;;;;-1.26;100.00;103258.72;6471334;23;20008;-72
2022/01/21 03:57:03;;;;;;;25.90;6.77;;;;;;;-1.25;100.00;103260.50;6498470;23;20012;-74
2022/01/21 03:59:34;;;;;;;19.88;4.70;;;;;;;-1.32;100.00;103263.38;6498429;23;20086;-76
2022/01/21 04:02:06;;;;;;;27.60;5.17;;;;;;;-1.35;100.00;103255.50;6497742;23;20008;-75
2022/01/21 04:04:38;;;;;;;16.70;4.70;;;;;;;-1.38;100.00;103257.81;6497979;23;20008;-74
2022/01/21 04:07:09;;;;;;;22.03;4.50;;;;;;;-1.45;100.00;103271.78;6498352;23;20107;-72
2022/01/21 04:09:42;;;;;;;19.77;4.93;;;;;;;-1.54;100.00;103261.75;6498998;23;20079;-75
2022/01/21 04:12:13;;;;;;;22.45;6.20;;;;;;;-1.57;100.00;103261.50;6498475;23;20004;-76
2022/01/21 04:14:49;;;;;;;23.40;4.55;;;;;;;-1.62;100.00;103264.50;6499046;23;20011;-74
2022/01/21 04:17:23;;;;;;;20.03;4.47;;;;;;;-1.70;100.00;103253.69;6472387;23;20342;-74
2022/01/21 04:19:54;;;;;;;27.52;5.63;;;;;;;-1.81;100.00;103257.06;6499299;23;20000;-77
2022/01/21 04:22:25;;;;;;;24.70;5.33;;;;;;;-1.84;100.00;103250.91;6498091;23;20066;-73
2022/01/21 04:24:59;;;;;;;15.97;4.40;;;;;;;-1.90;100.00;103249.56;6470845;23;20501;-72
2022/01/21 04:27:30;;;;;;;21.08;6.25;;;;;;;-1.82;100.00;103251.03;6498357;23;20422;-74
2022/01/21 04:30:06;;;;;;;24.17;4.97;;;;;;;-1.72;100.00;103252.69;6498299;23;20095;-75
2022/01/21 04:32:38;;;;;;;25.20;5.22;;;;;;;-1.63;100.00;103258.47;6498258;23;20026;-73
2022/01/21 04:35:11;;;;;;;25.55;6.20;;;;;;;-1.56;100.00;103255.63;6498839;23;20004;-75
2022/01/21 04:37:53;;;;;;;25.55;5.90;;;;;;;-1.50;100.00;103252.63;6496849;23;20354;-74
2022/01/21 04:40:29;;;;;;;21.00;4.97;;;;;;;-1.51;100.00;103253.44;6498474;23;20039;-74
2022/01/21 04:48:44;;;;;;;19.08;4.53;;;;;;;-1.51;100.00;103256.88;6497848;23;20008;-74
2022/01/21 04:51:20;;;;;;;16.98;5.38;;;;;;;-1.42;100.00;103254.09;6496197;23;20907;-74
2022/01/21 04:53:52;;;;;;;20.23;4.40;;;;;;;-1.39;100.00;103256.00;6497283;23;20051;-74
2022/01/21 04:56:23;;;;;;;18.63;4.27;;;;;;;-1.39;100.00;103250.91;6497435;23;20078;-75
2022/01/21 04:58:56;;;;;;;26.50;5.50;;;;;;;-1.48;100.00;103236.63;6496603;23;20023;-76
2022/01/21 05:01:27;;;;;;;23.35;5.13;;;;;;;-1.43;100.00;103254.91;6497615;23;20445;-73
2022/01/21 05:03:58;;;;;;;17.60;5.00;;;;;;;-1.37;100.00;103246.78;6496590;23;20000;-74
2022/01/21 05:06:30;;;;;;;19.77;5.47;;;;;;;-1.35;100.00;103242.69;6495865;23;20338;-75
2022/01/21 05:09:03;;;;;;;17.07;4.30;;;;;;;-1.29;100.00;103235.44;6496671;23;20024;-74
2022/01/21 05:11:37;;;;;;;18.33;3.83;;;;;;;-1.28;100.00;103232.13;6497098;23;20008;-76
2022/01/21 05:16:51;;;;;;;26.52;4.63;;;;;;;-1.32;100.00;103243.81;6496466;23;20568;-76
2022/01/21 05:19:22;;;;;;;25.13;5.15;;;;;;;-1.34;100.00;103240.22;6497185;23;20294;-74
2022/01/21 05:21:54;;;;;;;29.77;5.70;;;;;;;-1.31;100.00;103240.44;6496071;23;20008;-76
2022/01/21 05:24:25;;;;;;;24.47;6.37;;;;;;;-1.35;100.00;103237.56;6498090;23;20498;-77
2022/01/21 05:26:58;;;;;;;18.00;5.07;;;;;;;-1.29;100.00;103244.03;6497623;23;20004;-74
2022/01/21 05:29:33;;;;;;;22.63;4.75;;;;;;;-1.26;100.00;103250.16;6497622;23;20007;-74
2022/01/21 05:32:07;;;;;;;20.15;4.72;;;;;;;-1.27;100.00;103244.16;6497989;23;20036;-76
2022/01/21 05:34:38;;;;;;;23.00;6.25;;;;;;;-1.21;100.00;103251.38;6497859;22;20490;-76
2022/01/21 05:37:10;;;;;;;23.27;5.83;;;;;;;-1.20;100.00;103248.94;6495954;23;20054;-75
2022/01/21 05:39:41;;;;;;;18.20;5.53;;;;;;;-1.22;100.00;103257.28;6497681;23;20081;-74
2022/01/21 05:42:12;;;;;;;21.40;6.27;;;;;;;-1.23;100.00;103256.38;6497776;23;20014;-76
2022/01/21 05:47:16;;;;;;;30.97;6.03;;;;;;;-1.30;100.00;103255.03;6508161;23;20195;-76
2022/01/21 05:49:47;;;;;;;22.50;6.03;;;;;;;-1.29;100.00;103244.03;6497510;23;20009;-74
2022/01/21 05:52:20;;;;;;;20.53;7.57;;;;;;;-1.23;100.00;103243.59;6497714;23;20016;-75
2022/01/21 05:54:51;;;;;;;;;;;;;;;-1.27;100.00;103241.59;6497810;23;20008;-75
2022/01/21 05:57:23;;;;;;;34.65;10.75;;;;;;;-1.25;100.00;103257.06;6497639;23;20181;-74
2022/01/21 05:59:54;;;;;;;32.93;9.07;;;;;;;-1.26;100.00;103255.28;6496403;23;20000;-75
2022/01/21 06:02:25;;;;;;;25.57;8.67;;;;;;;-1.30;100.00;103266.97;6497284;23;20054;-75
2022/01/21 06:04:57;;;;;;;38.97;12.67;;;;;;;-1.34;100.00;103258.13;6497106;23;20271;-74
2022/01/21 06:07:28;;;;;;;26.43;9.97;;;;;;;-1.39;100.00;103267.13;6497487;23;20047;-75
2022/01/21 06:09:59;;;;;;;36.00;9.77;;;;;;;-1.38;100.00;103268.03;6497470;23;20004;-75
2022/01/21 06:12:31;;;;;;;37.20;10.23;;;;;;;-1.47;100.00;103270.78;6497602;23;20040;-75
2022/01/21 06:15:02;;;;;;;30.27;9.07;;;;;;;-1.48;100.00;103272.44;6497360;23;20012;-75
2022/01/21 06:17:34;;;;;;;29.67;9.80;;;;;;;-1.51;100.00;103269.66;6496853;23;20008;-73
2022/01/21 06:20:06;;;;;;;32.00;10.40;;;;;;;-1.52;100.00;103265.31;6497734;23;20243;-76
2022/01/21 06:22:38;;;;;;;24.40;11.20;;;;;;;-1.51;100.00;103274.78;6497060;23;20413;-76
2022/01/21 06:25:09;;;;;;;34.23;11.43;;;;;;;-1.54;100.00;103276.22;6497193;23;20095;-76
2022/01/21 06:27:41;;;;;;;27.57;11.20;;;;;;;-1.62;100.00;103278.19;6497658;23;20012;-76
2022/01/21 06:30:13;;;;;;;34.63;11.80;;;;;;;-1.52;100.00;103282.34;6496710;23;20008;-74
2022/01/21 06:32:45;;;;;;;33.00;13.55;;;;;;;-1.50;100.00;103284.25;6497572;23;20400;-75
2022/01/21 06:35:17;;;;;;;33.53;13.80;;;;;;;-1.41;100.00;103291.72;6496539;23;20083;-75
2022/01/21 06:37:48;;;;;;;36.83;13.93;;;;;;;-1.36;100.00;103303.19;6494868;23;20016;-75
2022/01/21 06:40:21;;;;;;;36.80;15.87;;;;;;;-1.28;100.00;103298.66;6497217;23;20023;-76
2022/01/21 06:42:53;;;;;;;30.17;15.93;;;;;;;-1.19;100.00;103301.00;6495993;23;20011;-74
2022/01/21 06:45:24;;;;;;;40.63;14.67;;;;;;;-1.18;100.00;103310.50;6496507;23;20004;-76
2022/01/21 06:48:02;;;;;;;31.77;15.60;;;;;;;-1.18;100.00;103318.16;6496594;23;20472;-73
2022/01/21 06:50:37;;;;;;;32.15;15.82;;;;;;;-1.05;100.00;103313.19;6496851;23;20062;-75
2022/01/21 06:53:09;;;;;;;29.40;14.57;;;;;;;-1.03;100.00;103309.09;6496586;23;20379;-76
2022/01/21 06:55:42;;;;;;;33.50;15.40;;;;;;;-0.97;100.00;103313.78;6494881;23;20036;-74
2022/01/21 06:58:13;;;;;;;30.52;16.45;;;;;;;-0.90;100.00;103315.13;6497725;23;20004;-75
2022/01/21 07:00:45;;;;;;;37.20;18.13;;;;;;;-0.84;100.00;103316.47;6496361;23;20077;-75
2022/01/21 07:03:16;;;;;;;32.97;16.33;;;;;;;-0.76;100.00;103320.53;6497337;23;20004;-77
2022/01/21 07:05:47;;;;;;;28.47;16.23;;;;;;;-0.70;100.00;103312.38;6496975;23;20008;-76
2022/01/21 07:08:19;;;;;;;32.07;16.27;;;;;;;-0.69;100.00;103316.75;6497243;23;20095;-76
2022/01/21 07:10:51;;;;;;;35.80;17.00;;;;;;;-0.65;100.00;103333.22;6496484;23;20095;-75
2022/01/21 07:13:22;;;;;;;34.23;15.93;;;;;;;-0.60;100.00;103334.44;6496764;23;20012;-76
2022/01/21 07:15:53;;;;;;;30.90;16.73;;;;;;;-0.54;100.00;103342.59;6470021;23;20012;-76
2022/01/21 07:18:25;;;;;;;24.30;14.60;;;;;;;-0.52;100.00;103335.91;6496977;23;20016;-74
2022/01/21 07:20:56;;;;;;;33.50;15.17;;;;;;;-0.47;100.00;103326.88;6496511;23;20422;-75
2022/01/21 07:23:28;;;;;;;36.33;15.13;;;;;;;-0.42;100.00;103333.25;6469438;23;20008;-73
2022/01/21 07:25:59;;;;;;;26.43;14.57;;;;;;;-0.40;100.00;103341.94;6496075;23;20089;-73
2022/01/21 07:28:33;;;;;;;30.27;14.33;;;;;;;-0.34;100.00;103331.22;6496881;23;20083;-75
2022/01/21 07:31:05;;;;;;;23.90;14.80;;;;;;;-0.30;100.00;103333.25;6496272;23;20050;-74
2022/01/21 07:33:38;;;;;;;33.03;16.13;;;;;;;-0.27;100.00;103345.41;6496084;23;20010;-74
2022/01/21 07:36:09;;;;;;;25.10;13.90;;;;;;;-0.26;100.00;103344.59;6502164;23;20007;-74
2022/01/21 07:38:41;;;;;;;24.67;13.93;;;;;;;-0.28;100.00;103353.88;6496655;23;20012;-75
2022/01/21 07:41:13;;;;;;;22.73;14.13;;;;;;;-0.26;100.00;103357.41;6496508;23;20016;-75
2022/01/21 07:43:44;;;;;;;31.00;13.87;;;;;;;-0.21;100.00;103353.50;6496839;23;20441;-75
2022/01/21 07:46:16;;;;;;;25.30;14.13;;;;;;;-0.19;100.00;103352.84;6496286;23;20070;-74
2022/01/21 07:48:48;;;;;;;26.02;13.50;;;;;;;-0.12;100.00;103345.63;6468751;23;20015;-74
2022/01/21 07:51:19;;;;;;;24.80;13.43;;;;;;;-0.10;100.00;103347.50;6495967;23;20011;-76
2022/01/21 07:53:51;;;;;;;22.23;12.93;;;;;;;-0.14;100.00;103355.75;6496169;23;20011;-75
2022/01/21 07:56:23;;;;;;;18.50;12.17;;;;;;;-0.09;100.00;103356.09;6495379;23;20304;-76
2022/01/21 07:58:55;;;;;;;24.15;13.07;;;;;;;-0.06;100.00;103348.63;6495883;23;20011;-74
2022/01/21 08:01:26;;;;;;;22.33;11.63;;;;;;;-0.08;100.00;103343.38;6496246;23;20371;-77
2022/01/21 08:03:58;;;;;;;25.63;12.50;;;;;;;-0.07;100.00;103340.03;6496066;23;20133;-75
2022/01/21 08:06:30;;;;;;;20.47;11.27;;;;;;;-0.08;100.00;103327.09;6495920;23;20236;-74
2022/01/21 08:09:03;;;;;;;20.25;10.63;;;;;;;-0.12;100.00;103327.66;6495421;23;20412;-76
2022/01/21 08:11:34;;;;;;;;;;;;;;;-0.16;100.00;103329.13;6496688;23;20118;-75
2022/01/21 08:14:05;;;;;;;22.13;11.27;;;;;;;-0.12;100.00;103328.56;6495909;23;19939;-75
2022/01/21 08:16:37;;;;;;;21.77;11.60;;;;;;;-0.07;100.00;103329.75;6496553;23;20042;-76
2022/01/21 08:19:09;;;;;;;18.45;10.55;;;;;;;-0.10;100.00;103328.66;6496101;23;20270;-77
2022/01/21 08:21:41;;;;;;;21.50;11.77;;;;;;;-0.10;100.00;103328.66;6496787;23;20020;-76
2022/01/21 08:24:13;;;;;;;22.98;11.75;;;;;;;-0.06;100.00;103323.88;6496136;23;20012;-76
2022/01/21 08:26:44;;;;;;;18.60;11.50;;;;;;;-0.06;100.00;103317.84;6495255;23;20102;-75
2022/01/21 08:29:16;;;;;;;23.67;11.80;;;;;;;-0.08;100.00;103314.28;6496018;23;20239;-73
2022/01/21 08:31:48;;;;;;;27.30;12.70;;;;;;;-0.07;100.00;103316.94;6495700;23;20004;-75
2022/01/21 08:34:19;;;;;;;18.63;11.17;;;;;;;-0.01;100.00;103319.94;6495868;23;20058;-76
2022/01/21 08:36:54;;;;;;;19.40;11.53;;;;;;;-0.01;100.00;103311.38;6469347;23;20032;-74
2022/01/21 08:39:25;;;;;;;24.30;10.93;;;;;;;0.05;100.00;103331.44;6494978;23;20370;-75
2022/01/21 08:41:56;;;;;;;28.03;10.00;;;;;;;0.11;100.00;103327.66;6497343;23;20057;-74
2022/01/21 08:44:28;;;;;;;19.23;11.13;;;;;;;0.22;100.00;103332.63;6500334;23;20027;-75
2022/01/21 08:47:00;;;;;;;22.43;10.97;;;;;;;0.26;100.00;103337.19;6495567;23;20027;-74
2022/01/21 08:49:32;;;;;;;14.20;9.63;;;;;;;0.29;100.00;103332.28;6495569;23;20048;-73
2022/01/21 08:52:04;;;;;;;29.47;11.83;;;;;;;0.35;100.00;103333.63;6495677;23;20239;-75
2022/01/21 08:54:35;;;;;;;19.00;9.47;;;;;;;0.51;100.00;103337.22;6495777;23;20012;-75
2022/01/21 08:57:06;;;;;;;19.87;8.60;;;;;;;0.65;100.00;103341.66;6467960;23;20881;-74
2022/01/21 08:59:38;;;;;;;24.57;8.93;;;;;;;0.77;100.00;103348.41;6495434;23;20032;-73
2022/01/21 09:02:09;;;;;;;14.33;7.57;;;;;;;0.96;100.00;103348.88;6495283;23;20401;-75
2022/01/21 09:04:41;;;;;;;13.97;7.47;;;;;;;1.12;100.00;103340.53;6495938;23;20004;-76
2022/01/21 09:07:12;;;;;;;15.83;6.83;;;;;;;1.37;100.00;103337.00;6495727;23;20091;-76
2022/01/21 09:09:44;;;;;;;15.60;6.57;;;;;;;1.54;100.00;103320.16;6496301;23;20000;-73
2022/01/21 09:12:15;;;;;;;22.87;7.23;;;;;;;1.67;100.00;103319.25;6495481;23;20016;-74
2022/01/21 09:14:47;;;;;;;18.93;6.73;;;;;;;1.68;100.00;103303.94;6494671;23;20718;-74
2022/01/21 09:17:18;;;;;;;12.57;5.30;;;;;;;1.72;100.00;103300.75;6495958;23;20433;-76
2022/01/21 09:19:50;;;;;;;12.87;4.83;;;;;;;1.79;100.00;103295.22;6496105;23;20035;-75
2022/01/21 09:22:21;;;;;;;13.07;4.70;;;;;;;1.97;100.00;103302.31;6495255;23;20438;-75
2022/01/21 09:24:52;;;;;;;16.77;5.03;;;;;;;2.19;100.00;103305.44;6495331;23;20066;-74
2022/01/21 09:27:24;;;;;;;19.47;4.30;;;;;;;2.38;98.13;103309.16;6495389;23;20461;-75
2022/01/21 09:29:55;;;;;;;15.70;4.70;;;;;;;2.58;97.12;103310.38;6495621;23;20437;-74
2022/01/21 09:32:26;;;;;;;15.67;6.30;;;;;;;2.72;95.69;103313.78;6496741;23;20369;-74
2022/01/21 09:34:59;;;;;;;14.90;5.00;;;;;;;2.90;95.26;103314.00;6496192;23;20004;-74
2022/01/21 09:37:31;;;;;;;14.07;4.07;;;;;;;3.05;93.83;103319.16;6495993;23;20051;-74
2022/01/21 09:40:06;;;;;;;18.35;5.05;;;;;;;3.15;93.63;103318.91;6496100;23;20019;-75
2022/01/21 09:42:37;;;;;;;11.63;3.95;;;;;;;3.51;94.31;103318.34;6495442;22;20004;-75
2022/01/21 09:45:12;;;;;;;14.57;3.70;;;;;;;3.50;91.18;103326.91;6495280;23;20203;-74
2022/01/21 09:47:45;;;;;;;15.48;3.50;;;;;;;3.66;90.30;103326.97;6495620;23;20004;-77
2022/01/21 09:50:19;;;;;;;;;;;;;;;3.95;90.02;103333.75;6502598;23;20004;-73
2022/01/21 09:52:53;;;;;;;11.23;3.65;;;;;;;4.04;89.11;103333.38;6504493;23;19976;-76
2022/01/21 09:55:25;;;;;;;13.68;3.72;;;;;;;4.17;88.17;103341.00;6495533;23;20011;-75
2022/01/21 09:57:57;;;;;;;11.37;3.93;;;;;;;4.39;87.87;103337.00;6495015;22;20012;-74
2022/01/21 10:00:28;;;;;;;10.53;3.30;;;;;;;4.54;86.25;103343.00;6495483;23;20308;-76
2022/01/21 10:03:03;;;;;;;10.33;4.00;;;;;;;4.67;85.72;103351.38;6495480;23;20585;-73
2022/01/21 10:05:36;;;;;;;13.35;3.70;;;;;;;4.98;85.46;103353.88;6495568;23;20004;-75
2022/01/21 10:08:08;;;;;;;13.30;3.55;;;;;;;4.85;82.68;103348.88;6495256;23;20004;-74
2022/01/21 10:10:43;;;;;;;8.57;3.45;;;;;;;5.13;83.88;103360.63;6496185;23;20010;-76
2022/01/21 10:13:18;;;;;;;14.35;3.67;;;;;;;5.22;82.35;103361.13;6496881;23;20006;-75
2022/01/21 10:15:49;;;;;;;15.25;4.47;;;;;;;5.36;81.51;103365.28;6496421;23;20012;-76
2022/01/21 10:18:22;;;;;;;11.10;3.43;;;;;;;5.60;80.11;103375.97;6496761;23;20000;-73
2022/01/21 10:21:06;;;;;;;9.90;2.88;;;;;;;5.80;80.02;103373.47;6496233;23;20008;-75
2022/01/21 10:23:42;;;;;;;11.73;4.07;;;;;;;5.94;77.98;103376.69;6497596;23;20049;-73
2022/01/21 10:26:19;;;;;;;11.55;3.33;;;;;;;5.88;78.02;103382.50;6497461;23;20114;-76
2022/01/21 10:28:55;;;;;;;10.98;3.47;;;;;;;5.40;79.90;103382.72;6497433;23;20500;-73
2022/01/21 10:31:30;;;;;;;10.80;3.13;;;;;;;5.08;80.84;103369.03;6494315;23;20011;-72
2022/01/21 10:34:07;;;;;;;11.70;3.88;;;;;;;4.97;82.29;103379.63;6496980;23;20436;-76
2022/01/21 10:36:44;;;;;;;15.43;4.45;;;;;;;5.37;82.06;103377.38;6496973;23;20330;-75
2022/01/21 10:39:28;;;;;;;12.95;3.83;;;;;;;5.94;79.99;103382.78;6497324;23;20020;-74
2022/01/21 10:42:01;;;;;;;16.80;3.92;;;;;;;6.56;78.25;103383.97;6469955;23;20069;-75
2022/01/21 10:44:33;;;;;;;10.93;3.10;;;;;;;6.02;76.99;103383.16;6469474;23;20075;-74
2022/01/21 10:47:09;;;;;;;13.13;4.07;;;;;;;6.27;77.53;103386.94;6496560;23;20357;-74
2022/01/21 10:49:40;;;;;;;12.35;3.38;;;;;;;6.93;75.44;103393.41;6468963;23;20058;-73
2022/01/21 10:52:15;;;;;;;13.10;4.83;;;;;;;6.82;74.73;103385.97;6497026;23;20008;-74
2022/01/21 10:54:49;;;;;;;21.90;5.22;;;;;;;6.54;76.12;103385.63;6497025;23;20083;-72
2022/01/21 10:57:20;;;;;;;14.88;4.07;;;;;;;6.20;76.76;103373.69;6497546;23;20004;-73
2022/01/21 11:00:02;;;;;;;13.43;4.73;;;;;;;6.04;78.42;103378.97;6496858;23;20019;-75
2022/01/21 11:02:50;;;;;;;16.83;4.20;;;;;;;6.27;78.17;103376.56;6497564;23;20012;-73
2022/01/21 11:05:25;;;;;;;19.17;4.75;;;;;;;6.27;78.41;103372.28;6497297;23;20235;-76
2022/01/21 11:08:18;;;;;;;12.73;4.30;;;;;;;6.17;80.29;103370.94;6497775;23;20031;-76
2022/01/21 11:10:51;;;;;;;13.13;4.03;;;;;;;6.02;82.88;103359.84;6430893;23;20044;-75
2022/01/21 11:13:23;;;;;;;18.55;4.60;;;;;;;5.81;82.86;103354.50;6431287;23;20044;-76
2022/01/21 11:16:18;;;;;;;15.63;4.60;;;;;;;5.72;84.75;103347.19;6432484;23;20008;-75
2022/01/21 11:18:57;;;;;;;16.05;4.45;;;;;;;5.61;84.92;103345.78;6431621;23;20009;-76
2022/01/21 11:21:38;;;;;;;12.73;4.03;;;;;;;6.05;83.69;103344.47;6430774;23;20012;-77
2022/01/21 11:24:11;;;;;;;19.23;4.93;;;;;;;6.63;83.07;103325.50;6431008;23;20332;-75
2022/01/21 11:26:42;;;;;;;;;;;;;;;7.06;79.84;103322.19;6431981;23;20040;-76
2022/01/21 11:29:34;;;;;;;21.73;4.80;;;;;;;6.71;80.79;103315.50;6439696;23;19931;-74
2022/01/21 11:32:06;;;;;;;18.25;5.65;;;;;;;6.22;79.81;103321.97;6374923;23;20125;-75
2022/01/21 11:34:38;;;;;;;17.55;5.63;;;;;;;6.06;81.64;103309.13;6387428;23;20095;-75
2022/01/21 11:37:11;;;;;;;13.25;4.28;;;;;;;6.09;82.10;103312.75;6388125;23;20013;-74
2022/01/21 11:39:42;;;;;;;18.05;4.50;;;;;;;5.90;80.99;103308.38;6387595;23;20322;-74
2022/01/21 11:42:15;;;;;;;14.07;5.17;;;;;;;5.92;82.82;103314.50;6424307;23;20233;-76
2022/01/21 11:44:52;;;;;;;19.48;5.25;;;;;;;5.79;82.70;103314.72;6438137;23;20151;-75
2022/01/21 11:47:47;;;;;;;19.10;4.03;;;;;;;5.55;83.18;103314.44;6436743;23;20017;-74
2022/01/21 11:50:21;;;;;;;13.38;4.35;;;;;;;5.51;83.47;103309.94;6436165;23;20013;-77
2022/01/21 11:52:53;;;;;;;14.65;4.68;;;;;;;5.38;84.51;103306.75;6435601;23;20019;-73
2022/01/21 11:55:51;;;;;;;16.98;4.50;;;;;;;5.55;84.62;103317.03;6434907;23;20013;-74
2022/01/21 11:58:23;;;;;;;16.58;5.10;;;;;;;5.41;84.75;103309.50;6428249;23;20017;-73
2022/01/21 12:00:55;;;;;;;19.88;5.55;;;;;;;5.37;85.25;103299.78;6432899;23;20484;-76
2022/01/21 12:03:53;;;;;;;14.13;5.35;;;;;;;5.30;85.82;103314.13;6463089;23;20013;-74
2022/01/21 12:06:36;;;;;;;17.10;4.82;;;;;;;5.33;86.95;103304.72;6473321;23;20077;-76
2022/01/21 12:09:09;;;;;;;19.33;4.78;;;;;;;5.36;86.50;103303.22;6471527;23;20008;-74
2022/01/21 12:11:42;;;;;;;14.23;4.63;;;;;;;5.59;86.64;103296.56;6469824;23;20008;-75
2022/01/21 12:14:41;;;;;;;17.08;4.57;;;;;;;5.67;84.66;103296.94;6467182;23;20024;-75
2022/01/21 12:17:36;;;;;;;16.02;4.80;;;;;;;5.59;85.49;103298.25;6462586;23;20551;-75
2022/01/21 12:20:09;;;;;;;14.52;4.57;;;;;;;5.35;85.54;103283.31;6465664;23;20005;-75
2022/01/21 12:22:40;;;;;;;;;;;;;;;5.33;85.84;103287.53;6467217;23;20059;-75
2022/01/21 12:25:12;;;;;;;16.02;4.47;;;;;;;5.24;87.29;103279.31;6465495;23;19908;-76
2022/01/21 12:28:14;;;;;;;17.77;5.25;;;;;;;5.26;87.19;103280.28;6438203;23;20058;-73
2022/01/21 12:30:53;;;;;;;17.58;4.93;;;;;;;5.30;87.24;103279.63;6465996;23;20325;-74
2022/01/21 12:34:02;;;;;;;16.00;4.60;;;;;;;5.24;87.45;103277.59;6463994;23;20036;-75
2022/01/21 12:36:55;;;;;;;22.58;4.70;;;;;;;5.12;88.28;103282.19;6465356;23;20071;-73